createdAt,value
2023-05-16T00:01:09.604Z,9.47
2023-05-16T00:03:38.431Z,8.07
2023-05-16T00:06:05.999Z,8.60
2023-05-16T00:08:33.452Z,8.50
2023-05-16T00:11:01.621Z,8.40
2023-05-16T00:13:30.590Z,8.63
2023-05-16T00:15:59.701Z,9.53
2023-05-16T00:18:27.252Z,9.83
2023-05-16T00:20:55.741Z,8.90
2023-05-16T00:23:23.020Z,9.33
2023-05-16T00:25:50.549Z,10.87
2023-05-16T00:28:18.438Z,10.43
2023-05-16T00:30:45.781Z,10.37
2023-05-16T00:33:13.212Z,10.97
2023-05-16T00:35:46.744Z,10.20
2023-05-16T00:38:14.132Z,10.07
2023-05-16T00:40:41.535Z,9.77
2023-05-16T00:43:09.040Z,9.60
2023-05-16T00:45:36.451Z,9.93
2023-05-16T00:48:03.942Z,9.77
2023-05-16T00:50:31.514Z,10.50
2023-05-16T00:52:58.821Z,10.33
2023-05-16T00:55:26.625Z,11.53
2023-05-16T00:57:54.469Z,10.90
2023-05-16T01:00:22.181Z,11.17
2023-05-16T01:02:52.058Z,11.23
2023-05-16T01:05:19.815Z,10.97
2023-05-16T01:07:47.331Z,12.80
2023-05-16T01:10:14.697Z,11.60
2023-05-16T01:12:42.148Z,12.83
2023-05-16T01:15:10.894Z,11.80
2023-05-16T01:17:46.983Z,12.10
2023-05-16T01:20:20.427Z,10.90
2023-05-16T01:22:47.902Z,10.60
2023-05-16T01:25:15.160Z,12.50
2023-05-16T01:27:42.877Z,10.67
2023-05-16T01:30:17.488Z,10.67
2023-05-16T01:32:45.084Z,10.70
2023-05-16T01:35:14.193Z,9.73
2023-05-16T01:38:01.755Z,10.70
2023-05-16T01:40:28.972Z,10.33
2023-05-16T01:42:57.325Z,11.87
2023-05-16T01:45:30.532Z,13.53
2023-05-16T01:48:02.279Z,15.83
2023-05-16T01:50:30.718Z,18.20
2023-05-16T01:53:01.184Z,17.53
2023-05-16T01:55:46.759Z,18.47
2023-05-16T01:58:15.543Z,21.47
2023-05-16T02:00:43.173Z,23.77
2023-05-16T02:03:10.575Z,23.57
2023-05-16T02:05:39.255Z,23.57
2023-05-16T02:08:07.145Z,24.40
2023-05-16T02:10:34.596Z,25.23
2023-05-16T02:13:01.931Z,22.50
2023-05-16T02:15:29.529Z,21.27
2023-05-16T02:17:57.698Z,25.07
2023-05-16T02:20:25.393Z,24.40
2023-05-16T02:22:53.479Z,24.57
2023-05-16T02:25:20.910Z,27.67
2023-05-16T02:27:49.423Z,24.50
2023-05-16T02:30:16.729Z,25.67
2023-05-16T02:32:47.027Z,27.30
2023-05-16T02:35:14.495Z,31.47
2023-05-16T02:37:42.294Z,31.43
2023-05-16T02:40:10.093Z,31.87
2023-05-16T02:42:37.461Z,35.07
2023-05-16T02:45:06.289Z,38.00
2023-05-16T02:47:33.829Z,41.03
2023-05-16T02:50:01.641Z,40.20
2023-05-16T02:52:28.990Z,38.57
2023-05-16T02:55:10.028Z,41.40
2023-05-16T02:57:44.150Z,41.33
2023-05-16T03:00:15.632Z,41.10
2023-05-16T03:02:45.027Z,45.47
2023-05-16T03:05:12.638Z,44.67
2023-05-16T03:07:40.349Z,44.27
2023-05-16T03:10:08.156Z,49.73
2023-05-16T03:12:35.799Z,50.33
2023-05-16T03:15:04.333Z,51.00
2023-05-16T03:17:32.309Z,52.57
2023-05-16T03:20:00.265Z,49.60
2023-05-16T03:22:28.037Z,55.63
2023-05-16T03:24:55.498Z,51.37
2023-05-16T03:27:24.027Z,57.47
2023-05-16T03:29:52.206Z,61.23
2023-05-16T03:32:19.594Z,61.20
2023-05-16T03:34:47.161Z,61.87
2023-05-16T03:37:16.159Z,64.27
2023-05-16T03:39:43.960Z,58.30
2023-05-16T03:42:11.529Z,59.93
2023-05-16T03:44:38.908Z,63.53
2023-05-16T03:47:06.444Z,66.87
2023-05-16T03:49:33.932Z,68.43
2023-05-16T03:52:01.889Z,66.00
2023-05-16T03:54:29.812Z,69.47
2023-05-16T03:56:58.128Z,67.37
2023-05-16T03:59:26.377Z,65.47
2023-05-16T04:01:53.888Z,74.93
2023-05-16T04:04:21.278Z,75.97
2023-05-16T04:06:48.642Z,82.67
2023-05-16T04:09:15.851Z,82.37
2023-05-16T04:11:43.624Z,82.17
2023-05-16T04:14:12.039Z,78.60
2023-05-16T04:16:39.429Z,81.60
2023-05-16T04:19:06.771Z,81.50
2023-05-16T04:21:35.881Z,85.43
2023-05-16T04:24:04.037Z,86.97
2023-05-16T04:26:32.256Z,86.83
2023-05-16T04:29:01.302Z,81.13
2023-05-16T04:31:28.779Z,78.10
2023-05-16T04:33:59.500Z,85.07
2023-05-16T04:36:31.391Z,81.53
2023-05-16T04:38:58.857Z,80.33
2023-05-16T04:41:26.096Z,82.87
2023-05-16T04:43:54.050Z,84.33
2023-05-16T04:46:21.357Z,81.03
2023-05-16T04:48:48.759Z,87.63
2023-05-16T04:51:16.272Z,80.07
2023-05-16T04:53:43.891Z,80.37
2023-05-16T04:56:11.178Z,78.43
2023-05-16T04:58:39.002Z,78.90
2023-05-16T05:01:07.391Z,77.57
2023-05-16T05:03:35.201Z,77.10
2023-05-16T05:06:03.322Z,75.17
2023-05-16T05:08:31.207Z,71.17
2023-05-16T05:10:58.706Z,68.37
2023-05-16T05:13:26.325Z,71.17
2023-05-16T05:15:53.741Z,67.20
2023-05-16T05:18:21.091Z,67.93
2023-05-16T05:20:48.567Z,66.97
2023-05-16T05:23:16.956Z,63.03
2023-05-16T05:25:45.636Z,66.03
2023-05-16T05:28:12.944Z,60.83
2023-05-16T05:30:42.276Z,58.43
2023-05-16T05:33:12.140Z,54.60
2023-05-16T05:35:39.454Z,54.20
2023-05-16T05:38:08.063Z,51.93
2023-05-16T05:40:36.551Z,53.30
2023-05-16T05:43:04.830Z,50.30
2023-05-16T05:45:33.395Z,52.37
2023-05-16T05:48:01.513Z,52.23
2023-05-16T05:50:28.975Z,50.57
2023-05-16T05:52:56.882Z,53.87
2023-05-16T05:55:25.101Z,50.17
2023-05-16T05:57:53.301Z,50.07
2023-05-16T06:00:21.554Z,48.87
2023-05-16T06:02:49.434Z,51.63
2023-05-16T06:05:17.063Z,50.43
2023-05-16T06:07:44.486Z,47.77
2023-05-16T06:10:11.831Z,52.57
2023-05-16T06:12:39.449Z,53.80
2023-05-16T06:15:06.922Z,51.30
2023-05-16T06:17:34.441Z,50.27
2023-05-16T06:20:02.235Z,52.73
2023-05-16T06:22:29.768Z,56.53
2023-05-16T06:24:57.381Z,55.30
2023-05-16T06:27:24.698Z,54.03
2023-05-16T06:29:52.020Z,62.93
2023-05-16T06:32:19.348Z,55.37
2023-05-16T06:34:47.089Z,58.33
2023-05-16T06:37:14.562Z,61.00
2023-05-16T06:39:42.137Z,62.23
2023-05-16T06:42:09.507Z,62.53
2023-05-16T06:44:36.848Z,60.40
2023-05-16T06:47:04.350Z,62.60
2023-05-16T06:49:32.036Z,67.27
2023-05-16T06:51:59.318Z,72.23
2023-05-16T06:54:26.874Z,63.67
2023-05-16T06:56:54.391Z,67.87
2023-05-16T06:59:21.654Z,67.60
2023-05-16T07:01:51.580Z,70.23
2023-05-16T07:04:19.245Z,74.67
2023-05-16T07:06:47.789Z,70.70
2023-05-16T07:09:15.286Z,74.67
2023-05-16T07:11:42.735Z,101.80
2023-05-16T07:14:10.049Z,84.17
2023-05-16T07:16:37.812Z,75.50
2023-05-16T07:19:05.355Z,85.60
2023-05-16T07:21:32.896Z,86.53
2023-05-16T07:24:00.242Z,83.87
2023-05-16T07:26:27.692Z,79.50
2023-05-16T07:28:55.536Z,76.37
2023-05-16T07:31:25.089Z,71.40
2023-05-16T07:33:52.629Z,72.43
2023-05-16T07:36:19.931Z,73.50
2023-05-16T07:38:47.574Z,68.20
2023-05-16T07:41:14.953Z,73.03
2023-05-16T07:43:42.530Z,74.80
2023-05-16T07:46:10.505Z,67.97
2023-05-16T07:48:38.974Z,68.00
2023-05-16T07:51:07.506Z,71.30
2023-05-16T07:53:36.011Z,68.50
2023-05-16T07:56:03.936Z,60.30
2023-05-16T07:58:31.457Z,67.73
2023-05-16T08:00:59.088Z,63.07
2023-05-16T08:03:27.591Z,61.87
2023-05-16T08:05:55.985Z,66.37
2023-05-16T08:08:24.558Z,64.03
2023-05-16T08:10:51.982Z,63.17
2023-05-16T08:13:19.541Z,61.90
2023-05-16T08:15:47.127Z,58.20
2023-05-16T08:18:15.419Z,58.23
2023-05-16T08:20:43.084Z,61.07
2023-05-16T08:23:10.777Z,57.33
2023-05-16T08:25:38.415Z,61.27
2023-05-16T08:28:05.941Z,61.87
2023-05-16T08:30:36.440Z,60.53
2023-05-16T08:33:05.539Z,60.87
2023-05-16T08:35:33.220Z,58.27
2023-05-16T08:38:00.600Z,64.20
2023-05-16T08:40:28.302Z,58.07
2023-05-16T08:42:56.088Z,58.20
2023-05-16T08:45:24.554Z,58.33
2023-05-16T08:47:55.593Z,59.00
2023-05-16T08:50:23.577Z,54.43
2023-05-16T08:52:52.843Z,52.53
2023-05-16T08:55:20.977Z,55.87
2023-05-16T08:57:49.996Z,55.33
2023-05-16T09:00:18.612Z,56.93
2023-05-16T09:02:46.708Z,57.13
2023-05-16T09:05:14.990Z,53.93
2023-05-16T09:07:43.111Z,56.03
2023-05-16T09:10:11.076Z,55.33
2023-05-16T09:12:38.873Z,47.90
2023-05-16T09:15:07.237Z,44.77
2023-05-16T09:17:40.495Z,41.07
2023-05-16T09:20:12.744Z,39.33
2023-05-16T09:22:40.163Z,39.77
2023-05-16T09:25:10.620Z,40.63
2023-05-16T09:27:42.692Z,41.30
2023-05-16T09:30:10.408Z,35.37
2023-05-16T09:32:37.944Z,37.37
2023-05-16T09:35:05.637Z,36.27
2023-05-16T09:37:32.951Z,35.80
2023-05-16T09:40:00.521Z,34.33
2023-05-16T09:42:27.864Z,30.23
2023-05-16T09:44:57.238Z,30.50
2023-05-16T09:47:24.670Z,28.97
2023-05-16T09:49:55.083Z,26.67
2023-05-16T09:52:22.560Z,28.80
2023-05-16T09:54:50.444Z,27.63
2023-05-16T09:57:22.063Z,27.17
2023-05-16T09:59:51.269Z,29.23
2023-05-16T10:02:19.682Z,28.53
2023-05-16T10:04:47.223Z,26.83
2023-05-16T10:07:14.906Z,25.50
2023-05-16T10:09:43.014Z,25.90
2023-05-16T10:12:11.858Z,26.57
2023-05-16T10:14:40.067Z,24.10
2023-05-16T10:17:07.965Z,23.43
2023-05-16T10:19:38.499Z,23.77
2023-05-16T10:22:06.935Z,24.17
2023-05-16T10:24:49.627Z,25.97
2023-05-16T10:27:19.144Z,26.10
2023-05-16T10:29:54.160Z,29.03
2023-05-16T10:32:24.869Z,23.07
2023-05-16T10:34:52.862Z,23.77
2023-05-16T10:37:20.513Z,25.43
2023-05-16T10:39:48.324Z,24.80
2023-05-16T10:42:18.539Z,21.83
2023-05-16T10:44:54.546Z,23.73
2023-05-16T10:47:26.174Z,24.83
2023-05-16T10:49:53.955Z,22.27
2023-05-16T10:52:21.351Z,21.87
2023-05-16T10:54:52.551Z,21.97
2023-05-16T10:57:22.002Z,20.57
2023-05-16T10:59:50.409Z,21.00
2023-05-16T11:02:35.103Z,19.87
2023-05-16T11:05:04.147Z,19.70
2023-05-16T11:07:35.476Z,19.23
2023-05-16T11:10:18.106Z,20.33
2023-05-16T11:12:46.539Z,19.53
2023-05-16T11:15:20.563Z,21.60
2023-05-16T11:17:48.235Z,18.83
2023-05-16T11:20:28.690Z,17.90
2023-05-16T11:23:28.712Z,16.90
2023-05-16T11:25:58.086Z,18.43
2023-05-16T11:28:26.829Z,17.00
2023-05-16T11:30:56.856Z,19.53
2023-05-16T11:33:25.076Z,19.40
2023-05-16T11:36:14.643Z,18.43
2023-05-16T11:38:44.231Z,18.90
2023-05-16T11:41:11.857Z,18.97
2023-05-16T11:43:43.011Z,17.77
2023-05-16T11:46:14.090Z,18.57
2023-05-16T11:48:41.701Z,19.87
2023-05-16T11:51:10.374Z,20.13
2023-05-16T11:53:38.407Z,18.43
2023-05-16T11:56:05.961Z,21.00
2023-05-16T11:58:33.422Z,22.97
2023-05-16T12:01:01.078Z,21.17
2023-05-16T12:03:29.041Z,21.20
2023-05-16T12:05:58.150Z,23.30
2023-05-16T12:08:26.758Z,19.57
2023-05-16T12:10:54.761Z,22.60
2023-05-16T12:13:23.871Z,21.57
2023-05-16T12:15:52.880Z,22.07
2023-05-16T12:18:21.940Z,20.60
2023-05-16T12:20:50.558Z,20.50
2023-05-16T12:23:18.191Z,19.95
2023-05-16T12:25:47.390Z,20.97
2023-05-16T12:28:15.222Z,20.27
2023-05-16T12:30:43.985Z,24.17
2023-05-16T12:33:15.223Z,23.83
2023-05-16T12:35:44.508Z,21.60
2023-05-16T12:38:13.160Z,21.23
2023-05-16T12:40:41.709Z,18.10
2023-05-16T12:43:20.146Z,20.93
2023-05-16T12:45:55.215Z,22.70
2023-05-16T12:48:23.436Z,21.63
2023-05-16T12:50:51.231Z,22.07
2023-05-16T12:53:19.158Z,20.57
2023-05-16T12:55:47.052Z,21.40
2023-05-16T12:58:14.622Z,23.40
2023-05-16T13:00:41.983Z,26.13
2023-05-16T13:03:09.393Z,23.77
2023-05-16T13:05:37.002Z,21.90
2023-05-16T13:08:04.766Z,24.00
2023-05-16T13:10:32.085Z,23.70
2023-05-16T13:13:00.319Z,24.63
2023-05-16T13:15:28.579Z,25.57
2023-05-16T13:17:56.416Z,26.83
2023-05-16T13:20:23.833Z,27.97
2023-05-16T13:22:51.589Z,37.33
2023-05-16T13:25:19.048Z,30.50
2023-05-16T13:27:46.500Z,50.63
2023-05-16T13:30:14.023Z,60.83
2023-05-16T13:32:41.913Z,38.40
2023-05-16T13:35:10.413Z,23.87
2023-05-16T13:37:38.375Z,24.30
2023-05-16T13:40:08.510Z,17.57
2023-05-16T13:42:36.327Z,13.80
2023-05-16T13:45:04.182Z,12.43
2023-05-16T13:47:33.042Z,11.53
2023-05-16T13:50:06.316Z,13.33
2023-05-16T13:52:34.640Z,11.43
2023-05-16T13:55:03.685Z,11.53
2023-05-16T13:57:31.810Z,12.17
2023-05-16T14:00:24.689Z,13.77
2023-05-16T14:02:46.498Z,16.80
2023-05-16T14:05:14.112Z,14.60
2023-05-16T14:07:41.464Z,16.30
2023-05-16T14:10:09.426Z,16.13
2023-05-16T14:12:37.630Z,17.83
2023-05-16T14:15:06.290Z,17.50
2023-05-16T14:17:33.804Z,18.37
2023-05-16T14:20:01.508Z,17.90
2023-05-16T14:22:28.972Z,19.97
2023-05-16T14:24:56.634Z,18.30
2023-05-16T14:27:24.175Z,16.77
2023-05-16T14:29:52.761Z,19.53
2023-05-16T14:32:20.310Z,18.23
2023-05-16T14:34:47.679Z,19.43
2023-05-16T14:37:16.353Z,16.60
2023-05-16T14:39:46.579Z,18.23
2023-05-16T14:42:14.143Z,18.60
2023-05-16T14:44:42.522Z,18.07
2023-05-16T14:47:10.166Z,19.03
2023-05-16T14:49:38.642Z,17.40
2023-05-16T14:52:07.138Z,17.77
2023-05-16T14:54:34.495Z,16.13
2023-05-16T14:57:03.552Z,16.43
2023-05-16T14:59:31.626Z,18.07
2023-05-16T15:01:59.572Z,16.37
2023-05-16T15:04:28.875Z,17.73
2023-05-16T15:06:56.917Z,18.60
2023-05-16T15:09:26.161Z,18.87
2023-05-16T15:11:53.613Z,18.63
2023-05-16T15:14:20.975Z,17.77
2023-05-16T15:16:48.617Z,21.80
2023-05-16T15:19:16.680Z,21.43
2023-05-16T15:21:44.159Z,20.07
2023-05-16T15:24:13.250Z,20.30
2023-05-16T15:26:41.174Z,20.20
2023-05-16T15:29:09.115Z,21.33
2023-05-16T15:31:36.615Z,19.50
2023-05-16T15:34:06.382Z,20.33
2023-05-16T15:36:33.790Z,19.33
2023-05-16T15:39:02.042Z,18.43
2023-05-16T15:41:56.453Z,20.17
2023-05-16T15:44:18.738Z,17.83
2023-05-16T15:46:46.230Z,20.53
2023-05-16T15:49:14.402Z,20.37
2023-05-16T15:51:43.254Z,16.97
2023-05-16T15:54:11.969Z,18.20
2023-05-16T15:56:42.837Z,16.87
2023-05-16T15:59:11.152Z,15.87
2023-05-16T16:01:38.778Z,13.03
2023-05-16T16:04:07.857Z,13.50
2023-05-16T16:06:37.060Z,13.10
2023-05-16T16:09:04.806Z,12.93
2023-05-16T16:11:32.282Z,12.67
2023-05-16T16:13:59.926Z,12.77
2023-05-16T16:16:28.316Z,14.90
2023-05-16T16:18:56.108Z,12.17
2023-05-16T16:21:30.939Z,12.40
2023-05-16T16:23:58.552Z,11.43
2023-05-16T16:26:27.447Z,11.17
2023-05-16T16:28:55.369Z,12.43
2023-05-16T16:31:24.166Z,18.33
2023-05-16T16:33:51.753Z,10.03
2023-05-16T16:36:19.838Z,10.13
2023-05-16T16:38:47.226Z,16.53
2023-05-16T16:41:15.652Z,12.77
2023-05-16T16:43:44.141Z,11.60
2023-05-16T16:46:12.770Z,8.57
2023-05-16T16:48:40.245Z,9.37
2023-05-16T16:51:07.637Z,8.77
2023-05-16T16:53:38.109Z,10.80
2023-05-16T16:56:06.655Z,9.50
2023-05-16T16:58:35.293Z,8.90
2023-05-16T17:01:04.191Z,9.67
2023-05-16T17:03:31.876Z,7.90
2023-05-16T17:05:59.448Z,7.33
2023-05-16T17:08:27.546Z,6.63
2023-05-16T17:10:54.998Z,9.43
2023-05-16T17:13:23.403Z,10.43
2023-05-16T17:15:52.445Z,7.07
2023-05-16T17:18:21.591Z,7.70
2023-05-16T17:20:49.022Z,9.67
2023-05-16T17:23:17.061Z,8.63
2023-05-16T17:25:45.557Z,6.80
2023-05-16T17:28:14.407Z,6.87
2023-05-16T17:30:42.816Z,7.43
2023-05-16T17:33:11.213Z,6.73
2023-05-16T17:35:39.426Z,6.00
2023-05-16T17:38:07.014Z,6.17
2023-05-16T17:40:34.320Z,6.83
2023-05-16T17:43:01.790Z,7.87
2023-05-16T17:45:29.314Z,8.90
2023-05-16T17:47:57.021Z,5.10
2023-05-16T17:50:24.966Z,8.27
2023-05-16T17:52:52.345Z,6.10
2023-05-16T17:55:20.420Z,8.13
2023-05-16T17:57:47.984Z,8.53
2023-05-16T18:00:17.784Z,7.77
2023-05-16T18:02:45.154Z,6.20
2023-05-16T18:05:14.100Z,6.03
2023-05-16T18:07:42.240Z,10.37
2023-05-16T18:10:10.651Z,5.63
2023-05-16T18:12:38.820Z,4.73
2023-05-16T18:15:07.395Z,5.20
2023-05-16T18:17:34.917Z,7.10
2023-05-16T18:20:09.837Z,8.30
2023-05-16T18:22:37.954Z,6.40
2023-05-16T18:25:06.562Z,9.40
2023-05-16T18:27:34.145Z,4.73
2023-05-16T18:30:02.520Z,5.83
2023-05-16T18:32:31.989Z,7.40
2023-05-16T18:35:00.724Z,4.97
2023-05-16T18:37:29.282Z,11.03
2023-05-16T18:39:57.704Z,5.13
2023-05-16T18:42:26.112Z,3.77
2023-05-16T18:44:53.435Z,7.23
2023-05-16T18:47:21.310Z,7.20
2023-05-16T18:49:48.818Z,8.30
2023-05-16T18:52:16.213Z,6.13
2023-05-16T18:54:43.548Z,3.90
2023-05-16T18:57:11.580Z,7.37
2023-05-16T18:59:38.874Z,5.70
2023-05-16T19:02:06.159Z,7.10
2023-05-16T19:04:35.017Z,5.43
2023-05-16T19:07:04.806Z,9.03
2023-05-16T19:09:36.572Z,5.43
2023-05-16T19:12:04.288Z,5.33
2023-05-16T19:14:32.210Z,6.30
2023-05-16T19:16:59.695Z,7.00
2023-05-16T19:19:27.335Z,7.80
2023-05-16T19:21:54.909Z,4.30
2023-05-16T19:24:22.732Z,7.30
2023-05-16T19:26:50.112Z,4.80
2023-05-16T19:29:19.026Z,4.17
2023-05-16T19:31:46.443Z,6.40
2023-05-16T19:34:14.267Z,5.33
2023-05-16T19:36:41.896Z,6.93
2023-05-16T19:39:09.411Z,6.73
2023-05-16T19:41:36.881Z,4.90
2023-05-16T19:44:04.729Z,8.53
2023-05-16T19:46:32.065Z,7.27
2023-05-16T19:48:59.651Z,7.00
2023-05-16T19:51:40.827Z,5.53
2023-05-16T19:54:08.999Z,5.30
2023-05-16T19:56:36.270Z,7.07
2023-05-16T19:59:03.822Z,2.97
2023-05-16T20:01:31.142Z,6.13
2023-05-16T20:03:59.077Z,5.87
2023-05-16T20:06:26.464Z,9.63
2023-05-16T20:08:53.967Z,5.10
2023-05-16T20:11:21.814Z,5.57
2023-05-16T20:13:49.405Z,3.40
2023-05-16T20:16:19.694Z,4.83
2023-05-16T20:18:47.175Z,8.30
2023-05-16T20:21:14.534Z,5.17
2023-05-16T20:23:41.891Z,3.90
2023-05-16T20:26:09.221Z,5.13
2023-05-16T20:28:36.571Z,5.00
2023-05-16T20:31:04.155Z,4.17
2023-05-16T20:33:31.657Z,7.70
2023-05-16T20:35:59.066Z,5.23
2023-05-16T20:38:26.552Z,6.23
2023-05-16T20:40:53.981Z,6.07
2023-05-16T20:43:21.268Z,4.80
2023-05-16T20:45:48.516Z,7.87
2023-05-16T20:48:16.195Z,3.93
2023-05-16T20:50:43.720Z,5.73
2023-05-16T20:53:11.258Z,3.93
2023-05-16T20:55:38.692Z,9.63
2023-05-16T20:58:06.384Z,4.30
2023-05-16T21:00:33.755Z,6.67
2023-05-16T21:03:01.073Z,6.10
2023-05-16T21:05:28.773Z,4.43
2023-05-16T21:07:56.074Z,6.90
2023-05-16T21:10:23.417Z,5.23
2023-05-16T21:12:50.942Z,4.17
2023-05-16T21:15:18.621Z,5.27
2023-05-16T21:17:46.736Z,3.43
2023-05-16T21:20:14.287Z,4.93
2023-05-16T21:22:42.596Z,5.73
2023-05-16T21:25:10.329Z,6.80
2023-05-16T21:27:37.699Z,3.47
2023-05-16T21:30:05.197Z,3.27
2023-05-16T21:32:33.137Z,3.13
2023-05-16T21:35:05.158Z,4.13
2023-05-16T21:37:35.475Z,2.57
2023-05-16T21:40:02.979Z,5.53
2023-05-16T21:42:30.398Z,4.20
2023-05-16T21:44:57.690Z,1.73
2023-05-16T21:47:26.378Z,4.43
2023-05-16T21:49:53.710Z,5.40
2023-05-16T21:52:21.237Z,6.97
2023-05-16T21:54:51.956Z,6.00
2023-05-16T21:57:19.875Z,7.37
2023-05-16T21:59:50.355Z,1.87
2023-05-16T22:02:22.615Z,2.63
2023-05-16T22:04:50.570Z,5.17
2023-05-16T22:07:17.953Z,2.87
2023-05-16T22:09:45.509Z,2.83
2023-05-16T22:12:13.083Z,3.23
2023-05-16T22:14:40.611Z,4.10
2023-05-16T22:17:08.183Z,6.00
2023-05-16T22:19:35.823Z,3.53
2023-05-16T22:22:03.174Z,2.97
2023-05-16T22:24:30.644Z,3.57
2023-05-16T22:26:58.034Z,6.30
2023-05-16T22:29:25.376Z,4.77
2023-05-16T22:31:52.885Z,3.90
2023-05-16T22:34:20.488Z,2.03
2023-05-16T22:36:47.789Z,3.23
2023-05-16T22:39:15.311Z,4.63
2023-05-16T22:41:42.929Z,5.73
2023-05-16T22:44:13.311Z,3.20
2023-05-16T22:46:41.872Z,4.93
2023-05-16T22:49:09.382Z,1.90
2023-05-16T22:51:36.950Z,1.83
2023-05-16T22:54:04.272Z,5.93
2023-05-16T22:56:31.623Z,1.77
2023-05-16T22:58:59.064Z,3.33
2023-05-16T23:01:26.461Z,4.00
2023-05-16T23:03:53.896Z,3.33
2023-05-16T23:06:21.562Z,2.97
2023-05-16T23:08:48.862Z,4.23
2023-05-16T23:11:16.231Z,3.17
2023-05-16T23:13:43.628Z,4.03
2023-05-16T23:16:11.139Z,3.47
2023-05-16T23:18:38.608Z,3.07
2023-05-16T23:21:06.214Z,2.53
2023-05-16T23:23:33.694Z,2.63
2023-05-16T23:26:01.082Z,2.20
2023-05-16T23:28:28.645Z,2.63
2023-05-16T23:30:56.228Z,10.23
2023-05-16T23:33:23.641Z,5.73
2023-05-16T23:35:51.321Z,1.70
2023-05-16T23:38:18.613Z,4.63
2023-05-16T23:40:46.164Z,3.37
2023-05-16T23:43:14.057Z,5.30
2023-05-16T23:45:41.568Z,4.23
2023-05-16T23:48:08.968Z,4.47
2023-05-16T23:50:36.642Z,1.80
2023-05-16T23:53:04.347Z,3.37
2023-05-16T23:55:31.763Z,6.43
2023-05-16T23:57:59.250Z,3.57
